createdAt,value
2018-04-12T00:00:10.599Z,0.00
2018-04-12T00:01:10.618Z,0.00
2018-04-12T00:02:10.670Z,0.00
2018-04-12T00:03:10.715Z,0.00
2018-04-12T00:04:10.762Z,0.00
2018-04-12T00:05:10.835Z,0.00
2018-04-12T00:06:10.861Z,0.00
2018-04-12T00:07:10.909Z,0.00
2018-04-12T00:08:10.953Z,0.00
2018-04-12T00:09:11.028Z,0.00
2018-04-12T00:10:11.052Z,0.00
2018-04-12T00:11:11.122Z,0.00
2018-04-12T00:12:11.153Z,0.00
2018-04-12T00:13:11.193Z,0.00
2018-04-12T00:14:11.240Z,0.00
2018-04-12T00:15:11.293Z,0.00
2018-04-12T00:16:11.359Z,0.00
2018-04-12T00:17:11.384Z,0.00
2018-04-12T00:18:11.431Z,0.00
2018-04-12T00:19:11.482Z,0.00
2018-04-12T00:20:11.529Z,0.00
2018-04-12T00:21:13.541Z,0.00
2018-04-12T00:22:13.561Z,0.00
2018-04-12T00:23:13.177Z,0.00
2018-04-12T00:24:14.065Z,0.00
2018-04-12T00:25:11.767Z,0.00
2018-04-12T00:26:12.652Z,0.00
2018-04-12T00:27:12.561Z,0.00
2018-04-12T00:28:12.529Z,0.00
2018-04-12T00:29:12.736Z,0.00
2018-04-12T00:30:13.037Z,0.00
2018-04-12T00:31:13.553Z,0.00
2018-04-12T00:32:13.042Z,0.00
2018-04-12T00:33:14.610Z,0.00
2018-04-12T00:34:12.920Z,0.00
2018-04-12T00:35:12.874Z,0.00
2018-04-12T00:36:12.314Z,0.00
2018-04-12T00:37:14.004Z,0.00
2018-04-12T00:38:14.048Z,0.00
2018-04-12T00:39:13.154Z,0.00
2018-04-12T00:40:13.754Z,0.00
2018-04-12T00:41:13.533Z,0.00
2018-04-12T00:42:12.577Z,0.00
2018-04-12T00:43:13.712Z,0.00
2018-04-12T00:44:14.019Z,0.00
2018-04-12T00:45:13.269Z,0.00
2018-04-12T00:46:13.982Z,0.00
2018-04-12T00:47:14.549Z,0.00
2018-04-12T00:53:23.413Z,0.00
2018-04-12T00:54:01.254Z,0.00
2018-04-12T00:55:01.300Z,0.00
2018-04-12T00:56:01.351Z,0.00
2018-04-12T00:57:02.780Z,0.00
2018-04-12T00:58:02.825Z,0.00
2018-04-12T00:59:02.108Z,0.00
2018-04-12T01:00:01.540Z,0.00
2018-04-12T01:01:02.054Z,0.00
2018-04-12T01:02:03.870Z,0.00
2018-04-12T01:03:03.838Z,0.00
2018-04-12T01:04:03.318Z,0.00
2018-04-12T01:05:02.523Z,0.00
2018-04-12T01:06:01.828Z,0.00
2018-04-12T01:07:02.622Z,0.00
2018-04-12T01:08:03.563Z,0.00
2018-04-12T01:13:50.435Z,0.00
2018-04-12T01:14:50.456Z,0.00
2018-04-12T01:15:51.545Z,0.00
2018-04-12T01:16:51.201Z,0.00
2018-04-12T01:17:50.598Z,0.00
2018-04-12T01:18:51.309Z,0.00
2018-04-12T01:19:52.091Z,0.00
2018-04-12T01:20:51.403Z,0.00
2018-04-12T01:21:51.794Z,0.00
2018-04-12T01:22:52.558Z,0.00
2018-04-12T01:23:50.886Z,0.00
2018-04-12T01:24:52.015Z,0.00
2018-04-12T01:25:52.049Z,0.00
2018-04-12T01:26:52.043Z,0.00
2018-04-12T01:27:53.061Z,0.00
2018-04-12T01:28:52.551Z,0.00
2018-04-12T01:29:51.178Z,0.00
2018-04-12T01:30:51.916Z,0.00
2018-04-12T01:31:52.549Z,0.00
2018-04-12T01:32:52.433Z,0.00
2018-04-12T01:33:54.059Z,0.00
2018-04-12T01:34:52.101Z,0.00
2018-04-12T01:35:51.462Z,0.00
2018-04-12T01:36:52.552Z,0.00
2018-04-12T01:37:53.057Z,0.00
2018-04-12T01:38:54.056Z,0.00
2018-04-12T01:39:53.051Z,0.00
2018-04-12T01:40:52.418Z,0.00
2018-04-12T01:41:53.047Z,0.00
2018-04-12T01:42:52.759Z,0.00
2018-04-12T01:43:52.998Z,0.00
2018-04-12T01:44:53.039Z,0.00
2018-04-12T01:45:52.549Z,0.00
2018-04-12T01:46:51.989Z,0.00
2018-04-12T01:47:53.080Z,0.00
2018-04-12T01:48:52.760Z,0.00
2018-04-12T01:49:52.792Z,0.00
2018-04-12T01:50:52.858Z,0.00
2018-04-12T01:51:52.886Z,0.00
2018-04-12T01:52:53.296Z,0.00
2018-04-12T01:53:53.041Z,0.00
2018-04-12T01:54:53.492Z,0.00
2018-04-12T01:55:53.549Z,0.00
2018-04-12T01:56:53.122Z,0.00
2018-04-12T01:57:52.549Z,0.00
2018-04-12T01:58:54.482Z,0.00
2018-04-12T01:59:54.551Z,0.00
2018-04-12T02:04:05.624Z,0.00
2018-04-12T02:05:06.688Z,0.00
2018-04-12T02:06:07.187Z,0.00
2018-04-12T02:07:06.906Z,0.00
2018-04-12T02:08:06.517Z,0.00
2018-04-12T02:09:06.879Z,0.00
2018-04-12T02:10:07.164Z,0.00
2018-04-12T02:11:05.924Z,0.00
2018-04-12T02:12:06.690Z,0.00
2018-04-12T02:13:07.336Z,0.00
2018-04-12T02:14:06.987Z,0.00
2018-04-12T02:15:06.703Z,0.00
2018-04-12T02:16:06.906Z,0.00
2018-04-12T02:17:07.719Z,0.00
2018-04-12T02:18:08.246Z,0.00
2018-04-12T02:19:07.681Z,0.00
2018-04-12T02:20:07.723Z,0.00
2018-04-12T02:21:07.087Z,0.00
2018-04-12T02:22:06.451Z,0.00
2018-04-12T02:23:07.956Z,0.00
2018-04-12T02:24:07.699Z,0.00
2018-04-12T02:25:08.722Z,0.00
2018-04-12T02:26:07.977Z,0.00
2018-04-12T02:27:07.449Z,0.00
2018-04-12T02:28:07.463Z,0.00
2018-04-12T02:29:08.764Z,0.00
2018-04-12T02:30:08.186Z,0.00
2018-04-12T02:31:09.237Z,0.00
2018-04-12T02:32:08.493Z,0.00
2018-04-12T02:33:06.978Z,0.00
2018-04-12T02:34:08.230Z,0.00
2018-04-12T02:35:07.745Z,0.00
2018-04-12T02:36:08.709Z,0.00
2018-04-12T02:37:07.918Z,0.00
2018-04-12T02:38:07.991Z,0.00
2018-04-12T02:39:09.252Z,0.00
2018-04-12T02:40:07.957Z,0.00
2018-04-12T02:41:08.371Z,0.00
2018-04-12T02:42:09.216Z,0.00
2018-04-12T02:43:09.290Z,0.00
2018-04-12T02:44:07.497Z,0.00
2018-04-12T02:45:08.780Z,0.00
2018-04-12T02:46:08.870Z,0.00
2018-04-12T02:47:08.340Z,0.00
2018-04-12T02:48:08.391Z,0.00
2018-04-12T02:49:08.414Z,0.00
2018-04-12T02:50:07.784Z,0.00
2018-04-12T02:51:08.544Z,0.00
2018-04-12T02:52:09.722Z,0.00
2018-04-12T02:53:09.722Z,0.00
2018-04-12T02:54:08.752Z,0.00
2018-04-12T02:55:08.023Z,0.00
2018-04-12T02:56:08.758Z,0.00
2018-04-12T02:57:09.168Z,0.00
2018-04-12T02:58:08.862Z,0.00
2018-04-12T02:59:08.949Z,0.00
2018-04-12T03:00:10.166Z,0.00
2018-04-12T03:01:08.307Z,0.00
2018-04-12T03:02:10.246Z,0.00
2018-04-12T03:03:09.720Z,0.00
2018-04-12T03:04:09.140Z,0.00
2018-04-12T03:05:09.707Z,0.00
2018-04-12T03:06:09.723Z,0.00
2018-04-12T03:07:09.902Z,0.00
2018-04-12T03:08:09.309Z,0.00
2018-04-12T03:09:10.173Z,0.00
2018-04-12T03:10:09.724Z,0.00
2018-04-12T03:11:10.237Z,0.00
2018-04-12T03:12:08.830Z,0.00
2018-04-12T03:13:09.868Z,0.00
2018-04-12T03:14:09.967Z,0.00
2018-04-12T03:15:10.212Z,0.00
2018-04-12T03:16:09.656Z,0.00
2018-04-12T03:17:10.717Z,0.00
2018-04-12T03:18:09.118Z,0.00
2018-04-12T03:19:09.164Z,0.00
2018-04-12T03:20:10.278Z,0.00
2018-04-12T03:21:10.743Z,0.00
2018-04-12T03:22:10.717Z,0.00
2018-04-12T03:23:09.808Z,0.00
2018-04-12T03:24:09.444Z,0.00
2018-04-12T03:25:11.205Z,0.00
2018-04-12T03:26:10.204Z,0.00
2018-04-12T03:27:11.244Z,0.00
2018-04-12T03:28:11.759Z,0.00
2018-04-12T03:29:10.957Z,0.00
2018-04-12T03:30:09.706Z,0.00
2018-04-12T03:31:11.204Z,0.00
2018-04-12T03:32:10.407Z,0.00
2018-04-12T03:33:11.221Z,0.00
2018-04-12T03:34:11.788Z,0.00
2018-04-12T03:35:10.850Z,0.00
2018-04-12T03:36:09.970Z,0.00
2018-04-12T03:37:12.252Z,0.00
2018-04-12T03:38:11.527Z,0.00
2018-04-12T03:39:10.794Z,0.00
2018-04-12T03:40:11.704Z,0.00
2018-04-12T03:41:10.955Z,0.00
2018-04-12T03:42:10.257Z,0.00
2018-04-12T03:43:11.022Z,0.00
2018-04-12T03:44:12.777Z,0.00
2018-04-12T03:45:11.097Z,0.00
2018-04-12T03:46:11.741Z,0.00
2018-04-12T03:47:11.711Z,0.00
2018-04-12T03:48:10.534Z,0.00
2018-04-12T03:49:11.358Z,0.00
2018-04-12T03:50:11.723Z,0.00
2018-04-12T03:51:11.605Z,0.00
2018-04-12T03:52:11.733Z,0.00
2018-04-12T03:53:11.447Z,0.00
2018-04-12T03:54:12.260Z,0.00
2018-04-12T03:55:11.644Z,0.00
2018-04-12T03:56:12.191Z,0.00
2018-04-12T03:57:11.853Z,0.00
2018-04-12T03:58:12.193Z,0.00
2018-04-12T03:59:11.056Z,0.00
2018-04-12T04:00:11.578Z,0.00
2018-04-12T04:01:11.833Z,0.00
2018-04-12T04:02:12.747Z,0.00
2018-04-12T04:03:14.271Z,0.00
2018-04-12T04:04:12.757Z,0.00
2018-04-12T04:05:12.695Z,0.00
2018-04-12T04:06:12.147Z,0.00
2018-04-12T04:07:12.376Z,0.00
2018-04-12T04:08:12.713Z,0.00
2018-04-12T04:09:12.229Z,0.00
2018-04-12T04:10:11.580Z,0.00
2018-04-12T04:11:12.124Z,0.00
2018-04-12T04:12:14.245Z,0.00
2018-04-12T04:13:12.781Z,0.00
2018-04-12T04:14:12.448Z,0.00
2018-04-12T04:15:13.240Z,0.00
2018-04-12T04:16:12.162Z,0.00
2018-04-12T04:17:14.268Z,0.00
2018-04-12T04:18:13.020Z,0.00
2018-04-12T04:19:14.246Z,0.00
2018-04-12T04:20:12.771Z,0.00
2018-04-12T04:21:12.096Z,0.00
2018-04-12T04:22:12.847Z,0.00
2018-04-12T04:23:13.251Z,0.00
2018-04-12T04:24:13.236Z,0.00
2018-04-12T04:25:12.618Z,0.00
2018-04-12T04:26:12.962Z,0.00
2018-04-12T04:27:12.378Z,0.00
2018-04-12T04:28:15.259Z,0.00
2018-04-12T04:29:13.226Z,0.00
2018-04-12T04:30:14.226Z,0.00
2018-04-12T04:31:13.246Z,0.00
2018-04-12T04:32:13.284Z,0.00
2018-04-12T04:33:12.706Z,0.00
2018-04-12T04:34:13.160Z,0.00
2018-04-12T04:35:13.223Z,5.63
2018-04-12T04:36:14.278Z,5.63
2018-04-12T04:37:14.203Z,5.63
2018-04-12T04:38:14.757Z,5.63
2018-04-12T04:39:12.949Z,5.63
2018-04-12T04:40:13.785Z,11.25
2018-04-12T04:41:14.205Z,11.25
2018-04-12T04:42:13.521Z,11.25
2018-04-12T04:43:14.236Z,16.88
2018-04-12T04:44:14.106Z,16.88
2018-04-12T04:45:13.256Z,22.50
2018-04-12T04:46:13.921Z,22.50
2018-04-12T04:47:14.028Z,28.13
2018-04-12T04:48:14.799Z,28.13
2018-04-12T04:49:14.124Z,28.13
2018-04-12T04:50:14.553Z,33.75
2018-04-12T04:51:14.192Z,33.75
2018-04-12T04:52:14.279Z,33.75
2018-04-12T04:53:14.704Z,33.75
2018-04-12T04:54:14.356Z,39.38
2018-04-12T04:55:14.483Z,39.38
2018-04-12T04:56:13.760Z,39.38
2018-04-12T04:57:16.767Z,45.00
2018-04-12T04:58:14.584Z,45.00
2018-04-12T04:59:14.531Z,45.00
2018-04-12T05:00:14.911Z,50.63
2018-04-12T05:01:15.201Z,56.25
2018-04-12T05:02:14.047Z,56.25
2018-04-12T05:03:14.782Z,56.25
2018-04-12T05:04:14.627Z,56.25
2018-04-12T05:05:15.153Z,61.88
2018-04-12T05:06:15.228Z,61.88
2018-04-12T08:13:25.544Z,461.25
2018-04-12T08:13:57.880Z,450.00
2018-04-12T08:14:57.923Z,461.25
2018-04-12T08:15:59.212Z,478.13
2018-04-12T08:16:58.023Z,472.50
2018-04-12T08:17:58.070Z,466.88
2018-04-12T08:18:58.119Z,461.25
2018-04-12T08:19:58.198Z,455.63
2018-04-12T08:20:58.217Z,461.25
2018-04-12T08:21:58.266Z,466.88
2018-04-12T08:22:58.316Z,444.38
2018-04-12T08:23:58.367Z,427.50
2018-04-12T08:24:58.439Z,388.13
2018-04-12T08:25:58.491Z,382.50
2018-04-12T08:26:58.515Z,427.50
2018-04-12T08:27:58.561Z,472.50
2018-04-12T08:28:58.616Z,540.00
2018-04-12T08:29:58.660Z,551.25
2018-04-12T08:30:58.753Z,511.88
2018-04-12T08:31:58.760Z,511.88
2018-04-12T08:32:58.807Z,540.00
2018-04-12T08:33:58.859Z,585.00
2018-04-12T08:34:58.906Z,607.50
2018-04-12T08:35:58.981Z,613.13
2018-04-12T08:36:59.027Z,613.13
2018-04-12T08:37:59.053Z,630.00
2018-04-12T08:38:59.104Z,641.25
2018-04-12T08:39:59.151Z,630.00
2018-04-12T08:40:59.203Z,613.13
2018-04-12T08:41:59.278Z,596.25
2018-04-12T08:42:59.301Z,573.75
2018-04-12T08:43:59.347Z,551.25
2018-04-12T08:44:59.404Z,551.25
2018-04-12T08:45:59.492Z,579.38
2018-04-12T08:46:59.518Z,618.75
2018-04-12T08:47:59.549Z,641.25
2018-04-12T08:48:59.594Z,618.75
2018-04-12T08:49:59.651Z,601.88
2018-04-12T08:50:59.692Z,641.25
2018-04-12T08:51:59.769Z,731.25
2018-04-12T08:52:59.817Z,787.50
2018-04-12T08:53:59.839Z,821.25
2018-04-12T08:54:59.897Z,798.75
2018-04-12T08:55:59.940Z,950.63
2018-04-12T08:56:59.988Z,1029.38
2018-04-12T08:58:00.061Z,950.63
2018-04-12T08:59:00.088Z,1046.25
2018-04-12T09:00:00.135Z,1153.13
2018-04-12T09:01:00.186Z,1130.63
2018-04-12T09:02:00.235Z,1158.75
2018-04-12T09:03:00.309Z,1175.63
2018-04-12T09:04:00.332Z,1293.75
2018-04-12T09:05:00.415Z,1310.63
2018-04-12T09:06:00.441Z,961.88
2018-04-12T09:07:00.484Z,1125.00
2018-04-12T09:08:00.563Z,1260.00
2018-04-12T09:09:00.583Z,1406.25
2018-04-12T09:10:00.634Z,1260.00
2018-04-12T09:11:00.682Z,1254.38
2018-04-12T09:12:00.731Z,883.13
2018-04-12T09:13:00.809Z,911.25
2018-04-12T09:14:00.834Z,945.00
2018-04-12T09:15:00.884Z,877.50
2018-04-12T09:16:00.936Z,1080.00
2018-04-12T09:17:01.012Z,1158.75
2018-04-12T09:18:01.050Z,1130.63
2018-04-12T09:19:01.113Z,1260.00
2018-04-12T09:20:01.136Z,1248.75
2018-04-12T09:21:01.191Z,1276.88
2018-04-12T09:22:01.239Z,1153.13
2018-04-12T09:23:01.288Z,1231.88
2018-04-12T09:24:01.361Z,1248.75
2018-04-12T09:25:01.398Z,1231.88
2018-04-12T09:26:01.443Z,1327.50
2018-04-12T09:27:01.554Z,1591.88
2018-04-12T09:28:01.541Z,1524.38
2018-04-12T09:29:01.597Z,1513.13
2018-04-12T09:30:01.669Z,1530.00
2018-04-12T09:31:01.696Z,1625.63
2018-04-12T09:32:01.743Z,1608.75
